San Ygnacio, TX (78067)

6:02 AM CST on December 19, 2014 (GMT -0600)
Zapata | Change Station
CLOSE
Current Station
Airport
Location: Zapata,
Elevation: 423 ft
Nearby Weather Stations

Elev 423 ft 26.97 °N, 99.25 °W | Updated 27 minutes ago

Fog
Fog
61 °F
Feels Like 61 °F
N
8
Wind Variable Wind from WNW

Today
High -- | Low -- °F
--% Chance of Precip.
Yesterday
High -- | Low -- °F
Precip. -- in
7:21 AM 5:48 PM
Waning Crescent, 8% visible
Pressure 29.95 in
Visibility 1.0 miles
Clouds Overcast 300 ft
Dew Point 61 °F
Humidity 100%
Rainfall 0.05 in
Snow Depth Not available.
UV 0 out of 12
Pollen 9.50 out of 12
Air Quality Not available.
Flu Activity Not available.
METAR KAPY 191135Z AUTO 30007KT 1SM BR OVC003 16/16 A2995 RMK AO2 T01600160

More Conditions Fewer Conditions

Pressure 29.95 in
Visibility 1.0 miles
Clouds Overcast 300 ft
Dew Point 61 °F
Humidity 100%
Rainfall 0.05 in
Snow Depth Not available.
UV 0 out of 12
Pollen 9.50 out of 12
Air Quality Not available.
Flu Activity Not available.
METAR KAPY 191135Z AUTO 30007KT 1SM BR OVC003 16/16 A2995 RMK AO2 T01600160

More Conditions Fewer Conditions

Nowcast | as of 4:03 am CST on December 19, 2014

Through 6 am...isolated to widely scattered showers will continue to develop across deep south Texas and move northeastward at around 30 mph. Rainfall amounts on average will remain light at around a tenth of an inch or less but up to one quarter of inch is possible underneath any heavier showers.

×

10-Day Weather Forecast

Almanac

Astronomy

Dec. 19, 2014 Rise Set
Actual Time
Civil Twilight
Nautical Twilight
Astronomical Twilight
Moon
Length of Visible Light
Length of Day
Tomorrow will be .
, % of the Moon is Illuminated

Today's Extremes

State Highs State Lows

Community

WunderPhotos

Upload Photos

1,778,968 photos uploaded!

WunderBlogs® & News

Nearby

Air Quality

  Air Quality AQ Index Pollutant
Not available.

Snow Depth

Station Depth Elevation

Earthquake Activity

City Distance Mag. Time & Date
Minimum magnitude displayed is 2.5.

Coastal Water Temperatures

Place Temperature

Nearby Weather Stations